sensor_id;sensor_type;location;lat;lon;timestamp;temperature;humidity
33803;DHT22;20110;53.120;5.786;2023-01-16T00:01:26;3.50;99.90
33803;DHT22;20110;53.120;5.786;2023-01-16T00:03:53;3.50;99.90
33803;DHT22;20110;53.120;5.786;2023-01-16T00:06:19;3.50;99.90
33803;DHT22;20110;53.120;5.786;2023-01-16T00:08:45;3.40;99.90
33803;DHT22;20110;53.120;5.786;2023-01-16T00:11:13;3.60;99.90
33803;DHT22;20110;53.120;5.786;2023-01-16T00:13:39;3.60;99.90
33803;DHT22;20110;53.120;5.786;2023-01-16T00:16:05;3.60;99.90
33803;DHT22;20110;53.120;5.786;2023-01-16T00:18:32;3.60;99.90
33803;DHT22;20110;53.120;5.786;2023-01-16T00:20:57;3.50;99.90
33803;DHT22;20110;53.120;5.786;2023-01-16T00:23:23;3.60;99.90
33803;DHT22;20110;53.120;5.786;2023-01-16T00:25:49;3.50;99.90
33803;DHT22;20110;53.120;5.786;2023-01-16T00:28:15;3.50;99.90
33803;DHT22;20110;53.120;5.786;2023-01-16T00:30:41;3.60;99.90
33803;DHT22;20110;53.120;5.786;2023-01-16T00:33:08;3.60;99.90
33803;DHT22;20110;53.120;5.786;2023-01-16T00:35:34;3.50;99.90
33803;DHT22;20110;53.120;5.786;2023-01-16T00:38:00;3.50;99.90
33803;DHT22;20110;53.120;5.786;2023-01-16T00:40:26;3.50;99.90
33803;DHT22;20110;53.120;5.786;2023-01-16T00:42:52;3.50;99.90
33803;DHT22;20110;53.120;5.786;2023-01-16T00:45:18;3.50;99.90
33803;DHT22;20110;53.120;5.786;2023-01-16T00:47:44;3.40;99.90
33803;DHT22;20110;53.120;5.786;2023-01-16T00:50:10;3.60;99.90
33803;DHT22;20110;53.120;5.786;2023-01-16T00:52:36;3.40;99.90
33803;DHT22;20110;53.120;5.786;2023-01-16T00:55:02;3.50;99.90
33803;DHT22;20110;53.120;5.786;2023-01-16T00:57:28;3.50;99.90
33803;DHT22;20110;53.120;5.786;2023-01-16T00:59:54;3.50;99.90
33803;DHT22;20110;53.120;5.786;2023-01-16T01:02:20;3.50;99.90
33803;DHT22;20110;53.120;5.786;2023-01-16T01:04:46;3.50;99.90
33803;DHT22;20110;53.120;5.786;2023-01-16T01:07:11;3.50;99.90
33803;DHT22;20110;53.120;5.786;2023-01-16T01:09:37;3.50;99.90
33803;DHT22;20110;53.120;5.786;2023-01-16T01:12:03;3.60;99.90
33803;DHT22;20110;53.120;5.786;2023-01-16T01:14:29;3.50;99.90
33803;DHT22;20110;53.120;5.786;2023-01-16T01:16:55;3.50;99.90
33803;DHT22;20110;53.120;5.786;2023-01-16T01:19:20;3.30;99.90
33803;DHT22;20110;53.120;5.786;2023-01-16T01:21:47;3.20;99.90
33803;DHT22;20110;53.120;5.786;2023-01-16T01:24:13;3.20;99.90
33803;DHT22;20110;53.120;5.786;2023-01-16T01:26:39;3.10;99.90
33803;DHT22;20110;53.120;5.786;2023-01-16T01:29:05;3.10;99.90
33803;DHT22;20110;53.120;5.786;2023-01-16T01:31:31;3.10;99.90
33803;DHT22;20110;53.120;5.786;2023-01-16T01:33:56;3.10;99.90
33803;DHT22;20110;53.120;5.786;2023-01-16T01:36:22;3.10;99.90
33803;DHT22;20110;53.120;5.786;2023-01-16T01:38:48;3.10;99.90
33803;DHT22;20110;53.120;5.786;2023-01-16T01:41:16;3.00;99.90
33803;DHT22;20110;53.120;5.786;2023-01-16T01:43:53;3.00;99.90
33803;DHT22;20110;53.120;5.786;2023-01-16T01:46:41;3.00;99.90
33803;DHT22;20110;53.120;5.786;2023-01-16T01:49:24;3.00;99.90
33803;DHT22;20110;53.120;5.786;2023-01-16T01:51:56;3.00;99.90
33803;DHT22;20110;53.120;5.786;2023-01-16T01:54:32;3.00;99.90
33803;DHT22;20110;53.120;5.786;2023-01-16T01:57:08;3.00;99.90
33803;DHT22;20110;53.120;5.786;2023-01-16T01:59:39;2.90;99.90
33803;DHT22;20110;53.120;5.786;2023-01-16T02:02:10;3.00;99.90
33803;DHT22;20110;53.120;5.786;2023-01-16T02:04:42;3.00;99.90
33803;DHT22;20110;53.120;5.786;2023-01-16T02:07:13;3.00;99.90
33803;DHT22;20110;53.120;5.786;2023-01-16T02:09:40;3.00;99.90
33803;DHT22;20110;53.120;5.786;2023-01-16T02:12:12;3.00;99.90
33803;DHT22;20110;53.120;5.786;2023-01-16T02:14:42;2.90;99.90
33803;DHT22;20110;53.120;5.786;2023-01-16T02:17:16;2.90;99.90
33803;DHT22;20110;53.120;5.786;2023-01-16T02:32:47;2.60;99.90
33803;DHT22;20110;53.120;5.786;2023-01-16T02:38:35;2.70;99.90
33803;DHT22;20110;53.120;5.786;2023-01-16T02:41:50;2.80;99.90
33803;DHT22;20110;53.120;5.786;2023-01-16T02:50:18;2.50;99.90
33803;DHT22;20110;53.120;5.786;2023-01-16T02:53:14;2.50;99.90
33803;DHT22;20110;53.120;5.786;2023-01-16T02:55:53;2.50;99.90
33803;DHT22;20110;53.120;5.786;2023-01-16T02:58:24;2.30;99.90
33803;DHT22;20110;53.120;5.786;2023-01-16T03:00:56;2.30;99.90
33803;DHT22;20110;53.120;5.786;2023-01-16T03:12:09;1.90;99.90
33803;DHT22;20110;53.120;5.786;2023-01-16T03:17:48;1.80;99.90
33803;DHT22;20110;53.120;5.786;2023-01-16T03:28:59;1.70;99.90
33803;DHT22;20110;53.120;5.786;2023-01-16T03:36:53;1.90;99.90
33803;DHT22;20110;53.120;5.786;2023-01-16T03:39:32;2.00;99.90
33803;DHT22;20110;53.120;5.786;2023-01-16T03:42:09;2.10;99.90
33803;DHT22;20110;53.120;5.786;2023-01-16T03:44:41;2.10;99.90
33803;DHT22;20110;53.120;5.786;2023-01-16T03:47:16;2.30;99.90
33803;DHT22;20110;53.120;5.786;2023-01-16T03:49:55;2.40;99.90
33803;DHT22;20110;53.120;5.786;2023-01-16T03:52:28;2.30;99.90
33803;DHT22;20110;53.120;5.786;2023-01-16T03:55:14;2.40;99.90
33803;DHT22;20110;53.120;5.786;2023-01-16T03:57:53;2.30;99.90
33803;DHT22;20110;53.120;5.786;2023-01-16T04:00:27;2.50;99.90
33803;DHT22;20110;53.120;5.786;2023-01-16T04:03:16;2.60;99.90
33803;DHT22;20110;53.120;5.786;2023-01-16T04:06:10;2.70;99.90
33803;DHT22;20110;53.120;5.786;2023-01-16T04:08:43;2.80;99.90
33803;DHT22;20110;53.120;5.786;2023-01-16T04:11:13;2.90;99.90
33803;DHT22;20110;53.120;5.786;2023-01-16T04:13:43;2.90;99.90
33803;DHT22;20110;53.120;5.786;2023-01-16T04:16:14;2.90;99.90
33803;DHT22;20110;53.120;5.786;2023-01-16T04:18:44;3.00;99.90
33803;DHT22;20110;53.120;5.786;2023-01-16T04:21:11;3.00;99.90
33803;DHT22;20110;53.120;5.786;2023-01-16T04:23:37;3.00;99.90
33803;DHT22;20110;53.120;5.786;2023-01-16T04:26:03;3.00;99.90
33803;DHT22;20110;53.120;5.786;2023-01-16T04:28:29;3.00;99.90
33803;DHT22;20110;53.120;5.786;2023-01-16T04:30:55;3.00;99.90
33803;DHT22;20110;53.120;5.786;2023-01-16T04:33:21;3.10;99.90
33803;DHT22;20110;53.120;5.786;2023-01-16T04:35:46;3.10;99.90
33803;DHT22;20110;53.120;5.786;2023-01-16T04:38:12;3.10;99.90
33803;DHT22;20110;53.120;5.786;2023-01-16T04:40:38;3.00;99.90
33803;DHT22;20110;53.120;5.786;2023-01-16T04:43:04;3.10;99.90
33803;DHT22;20110;53.120;5.786;2023-01-16T04:45:30;3.00;99.90
33803;DHT22;20110;53.120;5.786;2023-01-16T04:47:56;3.00;99.90
33803;DHT22;20110;53.120;5.786;2023-01-16T04:50:22;3.00;99.90
33803;DHT22;20110;53.120;5.786;2023-01-16T04:52:47;3.00;99.90
33803;DHT22;20110;53.120;5.786;2023-01-16T04:55:14;3.10;99.90
33803;DHT22;20110;53.120;5.786;2023-01-16T04:57:40;3.10;99.90
33803;DHT22;20110;53.120;5.786;2023-01-16T05:00:08;3.10;99.90
33803;DHT22;20110;53.120;5.786;2023-01-16T05:02:36;3.00;99.90
33803;DHT22;20110;53.120;5.786;2023-01-16T05:05:03;2.90;99.90
33803;DHT22;20110;53.120;5.786;2023-01-16T05:07:29;2.80;99.90
33803;DHT22;20110;53.120;5.786;2023-01-16T05:09:55;2.70;99.90
33803;DHT22;20110;53.120;5.786;2023-01-16T05:12:20;2.60;99.90
33803;DHT22;20110;53.120;5.786;2023-01-16T05:14:46;2.60;99.90
33803;DHT22;20110;53.120;5.786;2023-01-16T05:17:12;2.40;99.90
33803;DHT22;20110;53.120;5.786;2023-01-16T05:19:38;2.40;99.90
33803;DHT22;20110;53.120;5.786;2023-01-16T05:22:04;2.50;99.90
33803;DHT22;20110;53.120;5.786;2023-01-16T05:24:29;2.50;99.90
33803;DHT22;20110;53.120;5.786;2023-01-16T05:26:55;2.40;99.90
33803;DHT22;20110;53.120;5.786;2023-01-16T05:29:21;2.30;99.90
33803;DHT22;20110;53.120;5.786;2023-01-16T05:31:47;2.30;99.90
33803;DHT22;20110;53.120;5.786;2023-01-16T05:34:13;2.20;99.90
33803;DHT22;20110;53.120;5.786;2023-01-16T05:36:38;2.20;99.90
33803;DHT22;20110;53.120;5.786;2023-01-16T05:39:04;2.00;99.90
33803;DHT22;20110;53.120;5.786;2023-01-16T05:41:30;2.00;99.90
33803;DHT22;20110;53.120;5.786;2023-01-16T05:43:56;2.00;99.90
33803;DHT22;20110;53.120;5.786;2023-01-16T05:46:22;2.10;99.90
33803;DHT22;20110;53.120;5.786;2023-01-16T05:48:48;2.10;99.90
33803;DHT22;20110;53.120;5.786;2023-01-16T05:51:14;2.30;99.90
33803;DHT22;20110;53.120;5.786;2023-01-16T05:53:40;2.30;99.90
33803;DHT22;20110;53.120;5.786;2023-01-16T05:56:08;2.30;99.90
33803;DHT22;20110;53.120;5.786;2023-01-16T05:58:35;2.40;99.90
33803;DHT22;20110;53.120;5.786;2023-01-16T06:01:01;2.40;99.90
33803;DHT22;20110;53.120;5.786;2023-01-16T06:03:27;2.50;99.90
33803;DHT22;20110;53.120;5.786;2023-01-16T06:05:53;2.50;99.90
33803;DHT22;20110;53.120;5.786;2023-01-16T06:08:19;2.50;99.90
33803;DHT22;20110;53.120;5.786;2023-01-16T06:10:44;2.50;99.90
33803;DHT22;20110;53.120;5.786;2023-01-16T06:13:11;2.50;99.90
33803;DHT22;20110;53.120;5.786;2023-01-16T06:15:37;2.40;99.90
33803;DHT22;20110;53.120;5.786;2023-01-16T06:18:03;2.40;99.90
33803;DHT22;20110;53.120;5.786;2023-01-16T06:20:28;2.40;99.90
33803;DHT22;20110;53.120;5.786;2023-01-16T06:22:54;2.30;99.90
33803;DHT22;20110;53.120;5.786;2023-01-16T06:25:20;2.30;99.90
33803;DHT22;20110;53.120;5.786;2023-01-16T06:27:48;2.30;99.90
33803;DHT22;20110;53.120;5.786;2023-01-16T06:30:15;2.20;99.90
33803;DHT22;20110;53.120;5.786;2023-01-16T06:32:42;2.10;99.90
33803;DHT22;20110;53.120;5.786;2023-01-16T06:35:08;2.00;99.90
33803;DHT22;20110;53.120;5.786;2023-01-16T06:37:34;2.10;99.90
33803;DHT22;20110;53.120;5.786;2023-01-16T06:40:00;2.10;99.90
33803;DHT22;20110;53.120;5.786;2023-01-16T06:42:27;2.10;99.90
33803;DHT22;20110;53.120;5.786;2023-01-16T06:44:53;2.00;99.90
33803;DHT22;20110;53.120;5.786;2023-01-16T06:47:19;2.00;99.90
33803;DHT22;20110;53.120;5.786;2023-01-16T06:49:46;2.00;99.90
33803;DHT22;20110;53.120;5.786;2023-01-16T06:52:11;2.00;99.90
33803;DHT22;20110;53.120;5.786;2023-01-16T06:54:38;2.00;99.90
33803;DHT22;20110;53.120;5.786;2023-01-16T06:57:04;2.00;99.90
33803;DHT22;20110;53.120;5.786;2023-01-16T06:59:30;2.10;99.90
33803;DHT22;20110;53.120;5.786;2023-01-16T07:01:56;2.10;99.90
33803;DHT22;20110;53.120;5.786;2023-01-16T07:04:21;2.20;99.90
33803;DHT22;20110;53.120;5.786;2023-01-16T07:06:48;2.20;99.90
33803;DHT22;20110;53.120;5.786;2023-01-16T07:09:15;2.40;99.90
33803;DHT22;20110;53.120;5.786;2023-01-16T07:11:42;2.30;99.90
33803;DHT22;20110;53.120;5.786;2023-01-16T07:14:08;2.30;99.90
33803;DHT22;20110;53.120;5.786;2023-01-16T07:16:52;2.30;99.90
33803;DHT22;20110;53.120;5.786;2023-01-16T07:19:37;2.30;99.90
33803;DHT22;20110;53.120;5.786;2023-01-16T07:22:21;2.20;99.90
33803;DHT22;20110;53.120;5.786;2023-01-16T07:25:02;2.20;99.90
33803;DHT22;20110;53.120;5.786;2023-01-16T07:27:30;2.20;99.90
33803;DHT22;20110;53.120;5.786;2023-01-16T07:29:56;2.10;99.90
33803;DHT22;20110;53.120;5.786;2023-01-16T07:32:22;2.10;99.90
33803;DHT22;20110;53.120;5.786;2023-01-16T07:34:48;2.10;99.90
33803;DHT22;20110;53.120;5.786;2023-01-16T07:37:14;2.20;99.90
33803;DHT22;20110;53.120;5.786;2023-01-16T07:39:39;2.10;99.90
33803;DHT22;20110;53.120;5.786;2023-01-16T07:42:06;2.10;99.90
33803;DHT22;20110;53.120;5.786;2023-01-16T07:44:33;2.10;99.90
33803;DHT22;20110;53.120;5.786;2023-01-16T07:46:59;2.10;99.90
33803;DHT22;20110;53.120;5.786;2023-01-16T07:49:25;2.10;99.90
33803;DHT22;20110;53.120;5.786;2023-01-16T07:51:51;2.10;99.90
33803;DHT22;20110;53.120;5.786;2023-01-16T07:54:17;2.10;99.90
33803;DHT22;20110;53.120;5.786;2023-01-16T07:56:42;2.10;99.90
33803;DHT22;20110;53.120;5.786;2023-01-16T07:59:08;2.10;99.90
33803;DHT22;20110;53.120;5.786;2023-01-16T08:01:34;2.20;99.90
33803;DHT22;20110;53.120;5.786;2023-01-16T08:04:00;2.10;99.90
33803;DHT22;20110;53.120;5.786;2023-01-16T08:06:26;2.20;99.90
33803;DHT22;20110;53.120;5.786;2023-01-16T08:08:52;2.20;99.90
33803;DHT22;20110;53.120;5.786;2023-01-16T08:11:17;2.20;99.90
33803;DHT22;20110;53.120;5.786;2023-01-16T08:14:02;2.10;99.90
33803;DHT22;20110;53.120;5.786;2023-01-16T08:16:29;2.20;99.90
33803;DHT22;20110;53.120;5.786;2023-01-16T08:18:55;2.20;99.90
33803;DHT22;20110;53.120;5.786;2023-01-16T08:21:21;2.30;99.90
33803;DHT22;20110;53.120;5.786;2023-01-16T08:23:47;2.30;99.90
33803;DHT22;20110;53.120;5.786;2023-01-16T08:26:13;2.30;99.90
33803;DHT22;20110;53.120;5.786;2023-01-16T08:28:40;2.30;99.90
33803;DHT22;20110;53.120;5.786;2023-01-16T08:31:08;2.30;99.90
33803;DHT22;20110;53.120;5.786;2023-01-16T08:33:37;2.30;99.90
33803;DHT22;20110;53.120;5.786;2023-01-16T08:36:05;2.40;99.90
33803;DHT22;20110;53.120;5.786;2023-01-16T08:38:33;2.30;99.90
33803;DHT22;20110;53.120;5.786;2023-01-16T08:41:00;2.40;99.90
33803;DHT22;20110;53.120;5.786;2023-01-16T08:43:26;2.50;99.90
33803;DHT22;20110;53.120;5.786;2023-01-16T08:46:20;2.50;99.90
33803;DHT22;20110;53.120;5.786;2023-01-16T08:49:12;2.60;99.90
33803;DHT22;20110;53.120;5.786;2023-01-16T08:51:58;2.60;99.90
33803;DHT22;20110;53.120;5.786;2023-01-16T08:54:25;2.60;99.90
33803;DHT22;20110;53.120;5.786;2023-01-16T08:56:51;2.60;99.90
33803;DHT22;20110;53.120;5.786;2023-01-16T08:59:17;2.70;99.90
33803;DHT22;20110;53.120;5.786;2023-01-16T09:01:44;2.60;99.90
33803;DHT22;20110;53.120;5.786;2023-01-16T09:04:09;2.60;99.90
33803;DHT22;20110;53.120;5.786;2023-01-16T09:06:35;2.70;99.90
33803;DHT22;20110;53.120;5.786;2023-01-16T09:09:06;2.70;99.90
33803;DHT22;20110;53.120;5.786;2023-01-16T09:11:35;2.70;99.90
33803;DHT22;20110;53.120;5.786;2023-01-16T09:14:20;2.70;99.90
33803;DHT22;20110;53.120;5.786;2023-01-16T09:16:46;2.80;99.90
33803;DHT22;20110;53.120;5.786;2023-01-16T09:19:12;2.80;99.90
33803;DHT22;20110;53.120;5.786;2023-01-16T09:21:38;2.90;99.90
33803;DHT22;20110;53.120;5.786;2023-01-16T09:24:04;2.80;99.90
33803;DHT22;20110;53.120;5.786;2023-01-16T09:26:30;2.80;99.90
33803;DHT22;20110;53.120;5.786;2023-01-16T09:28:56;2.70;99.90
33803;DHT22;20110;53.120;5.786;2023-01-16T09:31:22;2.70;99.90
33803;DHT22;20110;53.120;5.786;2023-01-16T09:33:48;2.80;99.90
33803;DHT22;20110;53.120;5.786;2023-01-16T09:36:15;2.70;99.90
33803;DHT22;20110;53.120;5.786;2023-01-16T09:38:41;2.80;99.90
33803;DHT22;20110;53.120;5.786;2023-01-16T09:41:13;2.80;99.90
33803;DHT22;20110;53.120;5.786;2023-01-16T09:44:02;2.70;99.90
33803;DHT22;20110;53.120;5.786;2023-01-16T09:46:37;2.80;99.90
33803;DHT22;20110;53.120;5.786;2023-01-16T09:49:12;2.80;99.90
33803;DHT22;20110;53.120;5.786;2023-01-16T09:51:45;2.80;99.90
33803;DHT22;20110;53.120;5.786;2023-01-16T09:54:43;2.80;99.90
33803;DHT22;20110;53.120;5.786;2023-01-16T09:57:33;2.90;99.90
33803;DHT22;20110;53.120;5.786;2023-01-16T10:00:21;2.80;99.90
33803;DHT22;20110;53.120;5.786;2023-01-16T10:02:49;2.80;99.90
33803;DHT22;20110;53.120;5.786;2023-01-16T10:05:16;2.80;99.90
33803;DHT22;20110;53.120;5.786;2023-01-16T10:08:17;2.80;99.90
33803;DHT22;20110;53.120;5.786;2023-01-16T10:10:51;2.90;99.90
33803;DHT22;20110;53.120;5.786;2023-01-16T10:13:29;2.80;99.90
33803;DHT22;20110;53.120;5.786;2023-01-16T10:27:46;2.80;99.90
33803;DHT22;20110;53.120;5.786;2023-01-16T10:31:13;2.70;99.90
33803;DHT22;20110;53.120;5.786;2023-01-16T10:34:02;2.60;99.90
33803;DHT22;20110;53.120;5.786;2023-01-16T10:36:36;2.10;99.90
33803;DHT22;20110;53.120;5.786;2023-01-16T10:39:08;1.90;99.90
33803;DHT22;20110;53.120;5.786;2023-01-16T10:41:50;1.60;99.90
33803;DHT22;20110;53.120;5.786;2023-01-16T10:45:10;1.80;99.90
33803;DHT22;20110;53.120;5.786;2023-01-16T10:47:59;1.60;99.90
33803;DHT22;20110;53.120;5.786;2023-01-16T10:50:45;1.90;99.90
33803;DHT22;20110;53.120;5.786;2023-01-16T10:53:13;1.70;99.90
33803;DHT22;20110;53.120;5.786;2023-01-16T10:55:43;1.80;99.90
33803;DHT22;20110;53.120;5.786;2023-01-16T11:00:55;1.80;99.90
33803;DHT22;20110;53.120;5.786;2023-01-16T11:03:39;1.80;99.90
33803;DHT22;20110;53.120;5.786;2023-01-16T11:06:17;1.70;99.90
33803;DHT22;20110;53.120;5.786;2023-01-16T11:09:00;1.70;99.90
33803;DHT22;20110;53.120;5.786;2023-01-16T11:11:30;1.80;99.90
33803;DHT22;20110;53.120;5.786;2023-01-16T11:14:22;2.10;99.90
33803;DHT22;20110;53.120;5.786;2023-01-16T11:17:35;2.20;99.90
33803;DHT22;20110;53.120;5.786;2023-01-16T11:20:30;1.80;99.90
33803;DHT22;20110;53.120;5.786;2023-01-16T11:23:03;1.70;99.90
33803;DHT22;20110;53.120;5.786;2023-01-16T11:25:40;1.70;99.90
33803;DHT22;20110;53.120;5.786;2023-01-16T11:28:09;1.40;99.90
33803;DHT22;20110;53.120;5.786;2023-01-16T11:30:45;1.50;99.90
33803;DHT22;20110;53.120;5.786;2023-01-16T11:33:19;1.50;99.90
33803;DHT22;20110;53.120;5.786;2023-01-16T11:35:56;1.40;99.90
33803;DHT22;20110;53.120;5.786;2023-01-16T11:38:26;1.30;99.90
33803;DHT22;20110;53.120;5.786;2023-01-16T11:40:59;1.30;99.90
33803;DHT22;20110;53.120;5.786;2023-01-16T11:43:27;1.40;99.90
33803;DHT22;20110;53.120;5.786;2023-01-16T11:46:32;1.20;99.90
33803;DHT22;20110;53.120;5.786;2023-01-16T11:49:17;1.40;99.90
33803;DHT22;20110;53.120;5.786;2023-01-16T11:51:52;1.50;99.90
33803;DHT22;20110;53.120;5.786;2023-01-16T11:54:27;1.40;99.90
33803;DHT22;20110;53.120;5.786;2023-01-16T11:57:14;1.40;99.90
33803;DHT22;20110;53.120;5.786;2023-01-16T12:09:12;1.70;99.90
33803;DHT22;20110;53.120;5.786;2023-01-16T12:12:11;1.70;99.90
33803;DHT22;20110;53.120;5.786;2023-01-16T12:15:29;1.50;99.90
33803;DHT22;20110;53.120;5.786;2023-01-16T12:18:07;1.40;99.90
33803;DHT22;20110;53.120;5.786;2023-01-16T12:21:02;1.20;99.90
33803;DHT22;20110;53.120;5.786;2023-01-16T12:23:52;1.30;99.90
33803;DHT22;20110;53.120;5.786;2023-01-16T12:26:30;1.20;99.90
33803;DHT22;20110;53.120;5.786;2023-01-16T12:29:15;1.30;99.90
33803;DHT22;20110;53.120;5.786;2023-01-16T12:32:23;1.20;99.90
33803;DHT22;20110;53.120;5.786;2023-01-16T12:37:52;1.30;99.90
33803;DHT22;20110;53.120;5.786;2023-01-16T12:40:41;1.40;99.90
33803;DHT22;20110;53.120;5.786;2023-01-16T12:55:37;1.50;99.90
33803;DHT22;20110;53.120;5.786;2023-01-16T12:58:15;1.80;99.90
33803;DHT22;20110;53.120;5.786;2023-01-16T13:00:50;2.20;99.90
33803;DHT22;20110;53.120;5.786;2023-01-16T13:03:38;2.50;99.90
33803;DHT22;20110;53.120;5.786;2023-01-16T13:06:13;2.10;99.90
33803;DHT22;20110;53.120;5.786;2023-01-16T13:08:51;1.90;99.90
33803;DHT22;20110;53.120;5.786;2023-01-16T13:11:36;2.00;99.90
33803;DHT22;20110;53.120;5.786;2023-01-16T13:14:27;1.80;99.90
33803;DHT22;20110;53.120;5.786;2023-01-16T13:17:09;1.70;99.90
33803;DHT22;20110;53.120;5.786;2023-01-16T13:19:40;1.70;99.90
33803;DHT22;20110;53.120;5.786;2023-01-16T13:22:24;1.40;99.90
33803;DHT22;20110;53.120;5.786;2023-01-16T13:25:02;1.60;99.90
33803;DHT22;20110;53.120;5.786;2023-01-16T13:27:39;1.40;99.90
33803;DHT22;20110;53.120;5.786;2023-01-16T13:30:16;1.90;99.90
33803;DHT22;20110;53.120;5.786;2023-01-16T13:33:15;1.90;99.90
33803;DHT22;20110;53.120;5.786;2023-01-16T13:41:37;2.40;99.90
33803;DHT22;20110;53.120;5.786;2023-01-16T13:44:19;2.40;99.90
33803;DHT22;20110;53.120;5.786;2023-01-16T13:47:16;2.40;99.90
33803;DHT22;20110;53.120;5.786;2023-01-16T13:50:06;2.60;99.90
33803;DHT22;20110;53.120;5.786;2023-01-16T13:52:42;2.60;99.90
33803;DHT22;20110;53.120;5.786;2023-01-16T13:55:31;2.70;99.90
33803;DHT22;20110;53.120;5.786;2023-01-16T13:58:26;2.70;99.90
33803;DHT22;20110;53.120;5.786;2023-01-16T14:01:00;2.60;99.90
33803;DHT22;20110;53.120;5.786;2023-01-16T14:03:30;2.60;99.90
33803;DHT22;20110;53.120;5.786;2023-01-16T14:08:51;2.60;99.90
33803;DHT22;20110;53.120;5.786;2023-01-16T14:18:19;2.60;99.90
33803;DHT22;20110;53.120;5.786;2023-01-16T14:23:25;2.60;99.90
33803;DHT22;20110;53.120;5.786;2023-01-16T14:26:20;2.50;99.90
33803;DHT22;20110;53.120;5.786;2023-01-16T14:28:53;2.50;99.90
33803;DHT22;20110;53.120;5.786;2023-01-16T14:31:41;2.50;99.90
33803;DHT22;20110;53.120;5.786;2023-01-16T14:34:32;2.40;99.90
33803;DHT22;20110;53.120;5.786;2023-01-16T14:37:22;2.40;99.90
33803;DHT22;20110;53.120;5.786;2023-01-16T14:39:57;2.30;99.90
33803;DHT22;20110;53.120;5.786;2023-01-16T14:42:28;2.20;99.90
33803;DHT22;20110;53.120;5.786;2023-01-16T14:45:27;2.20;99.90
33803;DHT22;20110;53.120;5.786;2023-01-16T14:54:00;2.40;99.90
33803;DHT22;20110;53.120;5.786;2023-01-16T14:57:19;2.70;99.90
33803;DHT22;20110;53.120;5.786;2023-01-16T14:59:56;2.70;99.90
33803;DHT22;20110;53.120;5.786;2023-01-16T15:02:37;2.50;99.90
33803;DHT22;20110;53.120;5.786;2023-01-16T15:05:18;2.30;99.90
33803;DHT22;20110;53.120;5.786;2023-01-16T15:07:54;2.10;99.90
33803;DHT22;20110;53.120;5.786;2023-01-16T15:10:29;1.80;99.90
33803;DHT22;20110;53.120;5.786;2023-01-16T15:13:18;1.30;99.90
33803;DHT22;20110;53.120;5.786;2023-01-16T15:16:13;1.30;99.90
33803;DHT22;20110;53.120;5.786;2023-01-16T15:18:44;1.60;99.90
33803;DHT22;20110;53.120;5.786;2023-01-16T15:21:28;1.50;99.90
33803;DHT22;20110;53.120;5.786;2023-01-16T15:24:20;1.60;99.90
33803;DHT22;20110;53.120;5.786;2023-01-16T15:27:04;1.80;99.90
33803;DHT22;20110;53.120;5.786;2023-01-16T15:32:19;1.80;99.90
33803;DHT22;20110;53.120;5.786;2023-01-16T15:34:48;1.60;99.90
33803;DHT22;20110;53.120;5.786;2023-01-16T15:37:31;1.60;99.90
33803;DHT22;20110;53.120;5.786;2023-01-16T15:39:58;1.90;99.90
33803;DHT22;20110;53.120;5.786;2023-01-16T15:42:26;2.40;99.90
33803;DHT22;20110;53.120;5.786;2023-01-16T15:45:26;2.70;99.90
33803;DHT22;20110;53.120;5.786;2023-01-16T15:51:10;3.00;99.90
33803;DHT22;20110;53.120;5.786;2023-01-16T15:53:44;3.00;99.90
33803;DHT22;20110;53.120;5.786;2023-01-16T15:59:18;3.10;99.90
33803;DHT22;20110;53.120;5.786;2023-01-16T16:01:49;3.20;99.90
33803;DHT22;20110;53.120;5.786;2023-01-16T16:04:15;3.30;99.90
33803;DHT22;20110;53.120;5.786;2023-01-16T16:06:41;3.20;99.90
33803;DHT22;20110;53.120;5.786;2023-01-16T16:09:18;3.20;99.90
33803;DHT22;20110;53.120;5.786;2023-01-16T16:11:47;3.20;99.90
33803;DHT22;20110;53.120;5.786;2023-01-16T16:14:32;3.20;99.90
33803;DHT22;20110;53.120;5.786;2023-01-16T16:17:28;3.30;99.90
33803;DHT22;20110;53.120;5.786;2023-01-16T16:23:02;3.20;99.90
33803;DHT22;20110;53.120;5.786;2023-01-16T16:25:35;3.20;99.90
33803;DHT22;20110;53.120;5.786;2023-01-16T16:28:13;3.30;99.90
33803;DHT22;20110;53.120;5.786;2023-01-16T16:30:43;3.20;99.90
33803;DHT22;20110;53.120;5.786;2023-01-16T16:33:18;3.20;99.90
33803;DHT22;20110;53.120;5.786;2023-01-16T16:35:50;3.10;99.90
33803;DHT22;20110;53.120;5.786;2023-01-16T16:38:39;3.10;99.90
33803;DHT22;20110;53.120;5.786;2023-01-16T16:48:53;3.00;99.90
33803;DHT22;20110;53.120;5.786;2023-01-16T16:51:28;2.90;99.90
33803;DHT22;20110;53.120;5.786;2023-01-16T16:54:04;2.70;99.90
33803;DHT22;20110;53.120;5.786;2023-01-16T16:56:44;2.70;99.90
33803;DHT22;20110;53.120;5.786;2023-01-16T16:59:26;2.60;99.90
33803;DHT22;20110;53.120;5.786;2023-01-16T17:01:57;2.50;99.90
33803;DHT22;20110;53.120;5.786;2023-01-16T17:04:29;2.50;99.90
33803;DHT22;20110;53.120;5.786;2023-01-16T17:06:56;2.40;99.90
33803;DHT22;20110;53.120;5.786;2023-01-16T17:09:25;2.30;99.90
33803;DHT22;20110;53.120;5.786;2023-01-16T17:11:51;2.10;99.90
33803;DHT22;20110;53.120;5.786;2023-01-16T17:14:17;1.40;99.90
33803;DHT22;20110;53.120;5.786;2023-01-16T17:16:43;0.80;99.90
33803;DHT22;20110;53.120;5.786;2023-01-16T17:19:17;0.70;99.90
33803;DHT22;20110;53.120;5.786;2023-01-16T17:21:44;0.50;99.90
33803;DHT22;20110;53.120;5.786;2023-01-16T17:24:15;0.60;99.90
33803;DHT22;20110;53.120;5.786;2023-01-16T17:26:42;0.40;99.90
33803;DHT22;20110;53.120;5.786;2023-01-16T17:29:08;0.50;99.90
33803;DHT22;20110;53.120;5.786;2023-01-16T17:31:39;0.60;99.90
33803;DHT22;20110;53.120;5.786;2023-01-16T17:34:12;0.40;99.90
33803;DHT22;20110;53.120;5.786;2023-01-16T17:36:40;0.50;99.90
33803;DHT22;20110;53.120;5.786;2023-01-16T17:39:06;0.60;99.90
33803;DHT22;20110;53.120;5.786;2023-01-16T17:41:35;0.70;99.90
33803;DHT22;20110;53.120;5.786;2023-01-16T17:44:24;0.70;99.90
33803;DHT22;20110;53.120;5.786;2023-01-16T17:47:10;0.90;99.90
33803;DHT22;20110;53.120;5.786;2023-01-16T17:49:37;0.90;99.90
33803;DHT22;20110;53.120;5.786;2023-01-16T17:52:23;0.90;99.90
33803;DHT22;20110;53.120;5.786;2023-01-16T17:54:50;1.00;99.90
33803;DHT22;20110;53.120;5.786;2023-01-16T17:57:34;1.20;99.90
33803;DHT22;20110;53.120;5.786;2023-01-16T18:00:00;0.90;99.90
33803;DHT22;20110;53.120;5.786;2023-01-16T18:02:26;0.80;99.90
33803;DHT22;20110;53.120;5.786;2023-01-16T18:04:52;0.90;99.90
33803;DHT22;20110;53.120;5.786;2023-01-16T18:07:18;0.90;99.90
33803;DHT22;20110;53.120;5.786;2023-01-16T18:09:44;1.00;99.90
33803;DHT22;20110;53.120;5.786;2023-01-16T18:12:12;1.20;99.90
33803;DHT22;20110;53.120;5.786;2023-01-16T18:14:56;1.50;99.90
33803;DHT22;20110;53.120;5.786;2023-01-16T18:17:41;1.50;99.90
33803;DHT22;20110;53.120;5.786;2023-01-16T18:20:07;1.60;99.90
33803;DHT22;20110;53.120;5.786;2023-01-16T18:22:34;1.60;99.90
33803;DHT22;20110;53.120;5.786;2023-01-16T18:25:01;1.70;99.90
33803;DHT22;20110;53.120;5.786;2023-01-16T18:27:28;1.70;99.90
33803;DHT22;20110;53.120;5.786;2023-01-16T18:29:54;1.70;99.90
33803;DHT22;20110;53.120;5.786;2023-01-16T18:32:20;1.80;99.90
33803;DHT22;20110;53.120;5.786;2023-01-16T18:35:07;1.70;99.90